Time;durP1;ratioP1;P1;durP2;ratioP2;P2;SDS_P1;SDS_P2;PMS_P1;PMS_P2;Temp;Humidity;BMP_temperature;BMP_pressure;BME280_temperature;BME280_humidity;BME280_pressure;Samples;Min_cycle;Max_cycle;Signal;HPM_P1;HPM_P2
2023/12/12 00:00:41;;;;;;;5.80;2.08;;;;;;;;;;4800358;29;20074;-86
2023/12/12 00:05:59;;;;;;;4.50;2.47;;;;;;;;;;4779589;30;20077;-86
2023/12/12 00:08:36;;;;;;;3.80;2.25;;;;;;;;;;4764221;30;20044;-86
2023/12/12 00:11:07;;;;;;;2.38;1.30;;;;;;;;;;4764174;30;20043;-86
2023/12/12 00:16:59;;;;;;;7.57;2.30;;;;;;;;;;4774907;29;20123;-86
2023/12/12 00:19:33;;;;;;;7.65;3.20;;;;;;;;;;4754967;30;20056;-87
2023/12/12 00:38:38;;;;;;;;;;;;;;;;;;;;;
2023/12/12 00:44:23;;;;;;;3.17;2.22;;;;;;;;;;4762642;30;20078;-86
2023/12/12 00:46:54;;;;;;;3.35;2.40;;;;;;;;;;4753400;30;20048;-86
2023/12/12 00:49:20;;;;;;;2.65;1.20;;;;;;;;;;4828659;29;20050;-85
2023/12/12 00:51:46;;;;;;;1.75;0.65;;;;;;;;;;4832418;29;20046;-85
2023/12/12 00:54:18;;;;;;;1.42;0.57;;;;;;;;;;4834859;29;20072;-86
2023/12/12 00:56:46;;;;;;;1.13;0.73;;;;;;;;;;4822989;29;20077;-86
2023/12/12 00:59:23;;;;;;;1.33;0.90;;;;;;;;;;4832152;29;20037;-86
2023/12/12 01:01:53;;;;;;;1.05;0.47;;;;;;;;;;4827636;29;20060;-87
2023/12/12 01:04:28;;;;;;;7.43;1.73;;;;;;;;;;4839518;29;20057;-87
2023/12/12 01:07:10;;;;;;;5.00;2.20;;;;;;;;;;4827124;29;20077;-86
2023/12/12 01:10:04;;;;;;;4.70;1.67;;;;;;;;;;4824681;29;20056;-86
2023/12/12 01:12:52;;;;;;;0.63;0.30;;;;;;;;;;4836412;29;20045;-86
2023/12/12 01:15:30;;;;;;;4.47;1.02;;;;;;;;;;4828751;29;20057;-86
2023/12/12 01:18:17;;;;;;;1.63;0.80;;;;;;;;;;4795511;29;20551;-86
2023/12/12 01:45:28;;;;;;;3.45;1.23;;;;;;;;;;5507880;24;20211;-85
2023/12/12 01:48:04;;;;;;;5.15;0.63;;;;;;;;;;4797872;29;20078;-85
2023/12/12 01:53:46;;;;;;;0.82;0.30;;;;;;;;;;4810873;29;20060;-85
2023/12/12 01:56:12;;;;;;;0.70;0.38;;;;;;;;;;4820862;29;20035;-84
2023/12/12 01:59:10;;;;;;;1.08;0.68;;;;;;;;;;4823463;29;20059;-85
2023/12/12 02:04:56;;;;;;;2.13;0.98;;;;;;;;;;4769958;29;20047;-85
2023/12/12 02:07:27;;;;;;;1.20;0.93;;;;;;;;;;4818607;29;20133;-85
2023/12/12 02:13:04;;;;;;;0.95;0.55;;;;;;;;;;4807167;29;20157;-84
2023/12/12 02:15:34;;;;;;;1.25;0.30;;;;;;;;;;4803625;29;20051;-84
2023/12/12 02:18:00;;;;;;;1.30;0.35;;;;;;;;;;4801545;29;20091;-83
2023/12/12 02:20:26;;;;;;;0.25;0.17;;;;;;;;;;4823218;29;20053;-84
2023/12/12 02:22:52;;;;;;;0.65;0.45;;;;;;;;;;4805022;29;20054;-84
2023/12/12 02:25:18;;;;;;;0.50;0.30;;;;;;;;;;4799805;29;20507;-84
2023/12/12 02:27:45;;;;;;;0.65;0.32;;;;;;;;;;4796937;29;20089;-84
2023/12/12 02:30:16;;;;;;;1.20;0.55;;;;;;;;;;4797951;29;20049;-84
2023/12/12 02:32:42;;;;;;;1.40;0.97;;;;;;;;;;4814863;29;20057;-85
2023/12/12 02:35:11;;;;;;;2.97;1.05;;;;;;;;;;4829342;29;20055;-84
2023/12/12 02:37:45;;;;;;;2.55;1.30;;;;;;;;;;4818379;29;20502;-85
2023/12/12 02:40:11;;;;;;;1.05;0.55;;;;;;;;;;4797124;29;20050;-85
2023/12/12 02:42:39;;;;;;;0.70;0.20;;;;;;;;;;4806282;29;20039;-85
2023/12/12 02:45:05;;;;;;;1.88;1.08;;;;;;;;;;4806754;29;20042;-84
2023/12/12 02:47:31;;;;;;;0.47;0.20;;;;;;;;;;4831687;29;20087;-85
2023/12/12 02:50:01;;;;;;;1.25;0.82;;;;;;;;;;4845283;29;20050;-85
2023/12/12 02:52:36;;;;;;;3.97;1.17;;;;;;;;;;4834418;29;20050;-84
2023/12/12 02:55:12;;;;;;;2.30;1.27;;;;;;;;;;4838061;29;20564;-85
2023/12/12 02:57:47;;;;;;;3.83;1.63;;;;;;;;;;4841185;29;20060;-85
2023/12/12 03:00:26;;;;;;;2.05;1.08;;;;;;;;;;4838532;29;20401;-85
2023/12/12 03:02:52;;;;;;;3.92;1.02;;;;;;;;;;4835090;29;20042;-85
2023/12/12 03:05:19;;;;;;;1.42;1.02;;;;;;;;;;4837854;29;20145;-84
2023/12/12 03:08:00;;;;;;;0.77;0.57;;;;;;;;;;4830671;29;20041;-84
2023/12/12 03:10:37;;;;;;;3.33;1.23;;;;;;;;;;4827689;29;20053;-84
2023/12/12 03:13:08;;;;;;;1.83;1.40;;;;;;;;;;4836480;29;20058;-83
2023/12/12 03:15:48;;;;;;;2.20;0.90;;;;;;;;;;4839311;29;20045;-85
2023/12/12 03:18:19;;;;;;;2.97;1.20;;;;;;;;;;4835698;29;20107;-84
2023/12/12 03:21:05;;;;;;;5.18;1.40;;;;;;;;;;4853272;29;20042;-85
2023/12/12 03:23:52;;;;;;;1.75;0.68;;;;;;;;;;4797355;29;20046;-85
2023/12/12 03:26:43;;;;;;;0.73;0.57;;;;;;;;;;4762573;30;20051;-85
2023/12/12 03:29:14;;;;;;;9.73;0.55;;;;;;;;;;4759928;30;20162;-85
2023/12/12 03:31:43;;;;;;;0.63;0.45;;;;;;;;;;4752390;30;20640;-84
2023/12/12 03:34:12;;;;;;;1.65;0.15;;;;;;;;;;4745464;30;20062;-84
2023/12/12 03:36:44;;;;;;;6.45;1.33;;;;;;;;;;4754086;30;20048;-85
2023/12/12 03:39:12;;;;;;;4.63;1.92;;;;;;;;;;4755558;30;20044;-85
2023/12/12 03:41:47;;;;;;;3.90;2.03;;;;;;;;;;4758264;30;20056;-85
2023/12/12 03:44:15;;;;;;;8.07;2.42;;;;;;;;;;4749744;30;20514;-85
2023/12/12 04:04:37;;;;;;;3.90;0.80;;;;;;;;;;4832202;29;20072;-84
2023/12/12 04:07:08;;;;;;;6.18;1.88;;;;;;;;;;4836427;29;20049;-85
2023/12/12 05:40:45;;;;;;;2.00;0.27;;;;;;;;;;4769113;30;20142;-86
2023/12/12 05:43:36;;;;;;;0.22;0.10;;;;;;;;;;4800394;29;20039;-86
2023/12/12 05:46:04;;;;;;;1.02;0.10;;;;;;;;;;4823739;29;20042;-86
2023/12/12 05:48:36;;;;;;;1.42;0.63;;;;;;;;;;4821791;29;20043;-86
2023/12/12 05:51:02;;;;;;;3.80;1.73;;;;;;;;;;4822276;29;20042;-85
2023/12/12 05:53:42;;;;;;;1.58;0.80;;;;;;;;;;4810053;29;20085;-85
2023/12/12 05:56:18;;;;;;;3.97;1.27;;;;;;;;;;4816256;29;20060;-86
2023/12/12 05:58:55;;;;;;;1.13;0.35;;;;;;;;;;4817495;29;20055;-85
2023/12/12 06:04:45;;;;;;;;;;;;;;;;;;;;;
2023/12/12 06:08:01;;;;;;;1.13;0.50;;;;;;;;;;4822136;29;20038;-86
2023/12/12 06:10:49;;;;;;;;;;;;;;;;;;;;;
2023/12/12 06:13:18;;;;;;;2.78;1.20;;;;;;;;;;4821504;29;20042;-86
2023/12/12 06:15:44;;;;;;;2.40;1.00;;;;;;;;;;4820070;29;20135;-83
2023/12/12 06:18:10;;;;;;;2.67;1.15;;;;;;;;;;4817541;29;20469;-84
2023/12/12 06:20:51;;;;;;;3.05;0.65;;;;;;;;;;4820796;29;20141;-86
2023/12/12 06:23:20;;;;;;;1.20;0.70;;;;;;;;;;4820024;29;20038;-84
2023/12/12 06:25:48;;;;;;;3.85;0.95;;;;;;;;;;4801763;29;20400;-85
2023/12/12 06:28:20;;;;;;;1.50;0.60;;;;;;;;;;4806762;29;20039;-84
2023/12/12 06:30:49;;;;;;;3.03;0.40;;;;;;;;;;4808242;29;20072;-84
2023/12/12 06:33:16;;;;;;;0.65;0.32;;;;;;;;;;4821797;29;20070;-83
2023/12/12 06:35:42;;;;;;;1.00;0.30;;;;;;;;;;4805473;29;20050;-83
2023/12/12 06:38:08;;;;;;;1.05;0.57;;;;;;;;;;4821941;29;20053;-83
2023/12/12 06:40:34;;;;;;;0.57;0.40;;;;;;;;;;4822695;29;20051;-83
2023/12/12 06:43:03;;;;;;;1.15;0.77;;;;;;;;;;4820202;29;20405;-85
2023/12/12 06:45:29;;;;;;;2.67;1.00;;;;;;;;;;4808326;29;20046;-84
2023/12/12 06:48:01;;;;;;;4.53;1.70;;;;;;;;;;4808969;29;20038;-85
2023/12/12 06:50:35;;;;;;;3.13;1.23;;;;;;;;;;4806512;29;20062;-84
2023/12/12 06:53:01;;;;;;;3.25;1.00;;;;;;;;;;4801330;29;20068;-84
2023/12/12 06:55:33;;;;;;;6.95;0.73;;;;;;;;;;4805453;29;20405;-85
2023/12/12 06:58:03;;;;;;;2.17;0.68;;;;;;;;;;4811968;29;20043;-85
2023/12/12 07:00:32;;;;;;;4.03;0.90;;;;;;;;;;4808411;29;20141;-84
2023/12/12 07:02:59;;;;;;;2.33;1.05;;;;;;;;;;4802985;29;20242;-84
2023/12/12 07:05:25;;;;;;;1.38;0.60;;;;;;;;;;4827545;29;20058;-85
2023/12/12 07:07:54;;;;;;;2.78;0.90;;;;;;;;;;4836357;29;20110;-85
2023/12/12 07:10:20;;;;;;;2.72;1.13;;;;;;;;;;4829509;29;20037;-85
2023/12/12 07:12:47;;;;;;;1.63;1.17;;;;;;;;;;4835860;29;20051;-85
2023/12/12 07:15:13;;;;;;;4.00;1.50;;;;;;;;;;4836309;29;20171;-85
2023/12/12 07:17:41;;;;;;;2.17;1.08;;;;;;;;;;4827155;29;20077;-84
2023/12/12 07:20:11;;;;;;;1.02;0.82;;;;;;;;;;4839191;29;20060;-86
2023/12/12 07:22:38;;;;;;;0.52;0.40;;;;;;;;;;4826461;29;20049;-84
2023/12/12 07:25:05;;;;;;;0.73;0.47;;;;;;;;;;4837754;29;20045;-85
2023/12/12 07:27:31;;;;;;;0.50;0.32;;;;;;;;;;4819548;29;20039;-85
2023/12/12 07:30:02;;;;;;;1.02;0.68;;;;;;;;;;4833577;29;20057;-85
2023/12/12 07:32:29;;;;;;;1.25;0.60;;;;;;;;;;4832331;29;20038;-85
2023/12/12 07:34:58;;;;;;;0.55;0.30;;;;;;;;;;4825472;29;20050;-85
2023/12/12 07:37:24;;;;;;;0.70;0.30;;;;;;;;;;4832793;29;20072;-86
2023/12/12 07:39:51;;;;;;;4.40;1.20;;;;;;;;;;4834303;29;20093;-85
2023/12/12 07:42:17;;;;;;;3.40;2.08;;;;;;;;;;4821694;29;20508;-85
2023/12/12 07:44:43;;;;;;;5.22;2.15;;;;;;;;;;4821998;29;20137;-85
2023/12/12 07:47:09;;;;;;;1.77;1.05;;;;;;;;;;4823865;29;20038;-85
2023/12/12 07:49:35;;;;;;;2.90;1.58;;;;;;;;;;4834367;29;20054;-85
2023/12/12 07:52:01;;;;;;;2.50;1.08;;;;;;;;;;4830579;29;20155;-85
2023/12/12 07:54:29;;;;;;;3.25;1.15;;;;;;;;;;4821009;29;20573;-85
2023/12/12 07:56:57;;;;;;;4.95;2.08;;;;;;;;;;4826196;29;20041;-85
2023/12/12 07:59:31;;;;;;;4.30;1.63;;;;;;;;;;4829386;29;20127;-85
2023/12/12 08:01:57;;;;;;;2.60;1.38;;;;;;;;;;4825235;29;20078;-85
2023/12/12 08:04:23;;;;;;;2.40;1.40;;;;;;;;;;4828664;29;20054;-85
2023/12/12 08:06:49;;;;;;;5.50;3.03;;;;;;;;;;4830579;29;20144;-85
2023/12/12 08:09:15;;;;;;;3.72;1.55;;;;;;;;;;4824272;29;20061;-85
2023/12/12 08:11:44;;;;;;;1.27;1.05;;;;;;;;;;4827722;29;20037;-85
2023/12/12 08:14:12;;;;;;;2.35;0.85;;;;;;;;;;4844670;29;20062;-85
2023/12/12 08:16:38;;;;;;;2.47;1.17;;;;;;;;;;4838223;29;20145;-85
2023/12/12 08:19:04;;;;;;;1.55;1.05;;;;;;;;;;4830310;29;20062;-85
2023/12/12 08:21:30;;;;;;;9.55;1.23;;;;;;;;;;4820589;29;20067;-85
2023/12/12 08:23:56;;;;;;;0.28;0.15;;;;;;;;;;4832063;29;20069;-85
2023/12/12 08:26:22;;;;;;;0.40;0.30;;;;;;;;;;4836682;29;20045;-84
2023/12/12 08:28:49;;;;;;;0.43;0.17;;;;;;;;;;4822441;29;20043;-84
2023/12/12 08:31:15;;;;;;;1.13;0.50;;;;;;;;;;4819437;29;20631;-84
2023/12/12 08:33:42;;;;;;;0.50;0.20;;;;;;;;;;4834938;29;20069;-84
2023/12/12 08:36:10;;;;;;;3.03;1.50;;;;;;;;;;4836043;29;20060;-85
2023/12/12 08:38:39;;;;;;;1.20;0.30;;;;;;;;;;4832874;29;20654;-85
2023/12/12 08:41:10;;;;;;;2.38;0.40;;;;;;;;;;4835291;29;20050;-85
2023/12/12 08:43:38;;;;;;;1.10;0.30;;;;;;;;;;4836463;29;20057;-85
2023/12/12 08:46:04;;;;;;;0.77;0.40;;;;;;;;;;4824070;29;20431;-85
2023/12/12 08:48:31;;;;;;;2.60;0.85;;;;;;;;;;4831128;29;20050;-84
2023/12/12 08:50:57;;;;;;;1.33;0.70;;;;;;;;;;4829420;29;20111;-84
2023/12/12 08:53:26;;;;;;;1.00;0.20;;;;;;;;;;4823296;29;20059;-84
2023/12/12 08:55:53;;;;;;;3.47;1.00;;;;;;;;;;4835464;29;20037;-84
2023/12/12 08:58:19;;;;;;;10.35;2.05;;;;;;;;;;4827676;29;20058;-85
2023/12/12 09:00:45;;;;;;;1.38;0.75;;;;;;;;;;4835904;29;20046;-84
2023/12/12 09:03:11;;;;;;;0.93;0.45;;;;;;;;;;4838750;29;20049;-85
2023/12/12 09:05:37;;;;;;;2.58;1.02;;;;;;;;;;4834221;29;20488;-85
2023/12/12 09:08:04;;;;;;;1.33;0.75;;;;;;;;;;4815921;29;20050;-85
2023/12/12 09:10:30;;;;;;;1.23;0.77;;;;;;;;;;4838031;29;20430;-85
2023/12/12 09:12:56;;;;;;;1.13;0.68;;;;;;;;;;4840404;29;20045;-85
2023/12/12 09:15:22;;;;;;;1.55;0.57;;;;;;;;;;4832394;29;20058;-85
2023/12/12 09:17:48;;;;;;;0.95;0.80;;;;;;;;;;4822739;29;20497;-85
2023/12/12 09:20:15;;;;;;;1.50;0.50;;;;;;;;;;4831191;29;20401;-85
2023/12/12 09:22:41;;;;;;;2.38;0.93;;;;;;;;;;4828504;29;20077;-85
2023/12/12 09:25:07;;;;;;;3.72;0.32;;;;;;;;;;4835354;29;20046;-85
2023/12/12 09:27:33;;;;;;;0.13;0.13;;;;;;;;;;4837191;29;20046;-85
2023/12/12 09:29:59;;;;;;;1.55;0.35;;;;;;;;;;4833441;29;20047;-85
2023/12/12 09:32:25;;;;;;;1.90;0.80;;;;;;;;;;4836936;29;20644;-85
2023/12/12 09:35:01;;;;;;;5.35;1.75;;;;;;;;;;4819242;29;20055;-85
2023/12/12 09:37:28;;;;;;;11.25;5.18;;;;;;;;;;4834391;29;20042;-84
2023/12/12 09:39:57;;;;;;;1.75;0.70;;;;;;;;;;4820626;29;20049;-86
2023/12/12 09:42:24;;;;;;;6.18;2.15;;;;;;;;;;4831314;29;20042;-85
2023/12/12 09:45:00;;;;;;;2.05;0.90;;;;;;;;;;4835482;29;20046;-85
2023/12/12 09:47:29;;;;;;;1.27;0.68;;;;;;;;;;4837544;29;20041;-85
2023/12/12 09:49:55;;;;;;;1.05;0.73;;;;;;;;;;4845802;29;20037;-85
2023/12/12 09:52:26;;;;;;;0.45;0.30;;;;;;;;;;4831248;29;20042;-85
2023/12/12 09:54:53;;;;;;;4.43;0.65;;;;;;;;;;4822746;29;20042;-85
2023/12/12 09:57:19;;;;;;;2.35;1.25;;;;;;;;;;4830504;29;20042;-84
2023/12/12 09:59:45;;;;;;;0.75;0.47;;;;;;;;;;4834056;29;20086;-85
2023/12/12 10:02:20;;;;;;;4.80;1.17;;;;;;;;;;4834896;29;20042;-85
2023/12/12 10:04:47;;;;;;;1.27;0.57;;;;;;;;;;4839150;29;20050;-85
2023/12/12 10:07:20;;;;;;;1.30;0.80;;;;;;;;;;4826346;29;20054;-85
2023/12/12 10:09:48;;;;;;;1.50;0.75;;;;;;;;;;4827488;29;20053;-86
2023/12/12 10:12:14;;;;;;;1.13;0.50;;;;;;;;;;4806602;29;20176;-85
2023/12/12 10:14:47;;;;;;;1.50;0.50;;;;;;;;;;4831325;29;20038;-85
2023/12/12 10:17:13;;;;;;;1.05;0.90;;;;;;;;;;4820366;29;20689;-86
2023/12/12 10:19:40;;;;;;;1.33;0.40;;;;;;;;;;4826242;29;20042;-85
2023/12/12 10:22:11;;;;;;;7.38;3.33;;;;;;;;;;4818943;29;20080;-85
2023/12/12 10:24:37;;;;;;;11.35;6.43;;;;;;;;;;4824970;29;20126;-84
2023/12/12 10:27:08;;;;;;;22.33;12.45;;;;;;;;;;4818273;29;20051;-85
2023/12/12 10:29:34;;;;;;;16.50;11.40;;;;;;;;;;4813343;29;20458;-85
2023/12/12 10:32:02;;;;;;;9.48;5.38;;;;;;;;;;4804803;29;20046;-85
2023/12/12 10:34:28;;;;;;;10.93;5.40;;;;;;;;;;4811397;29;20066;-84
2023/12/12 10:36:55;;;;;;;9.15;4.03;;;;;;;;;;4830422;29;20085;-85
2023/12/12 10:39:21;;;;;;;5.13;2.10;;;;;;;;;;4810291;29;20043;-84
2023/12/12 10:41:55;;;;;;;4.15;1.85;;;;;;;;;;4830867;29;20085;-85
2023/12/12 10:44:24;;;;;;;1.35;0.93;;;;;;;;;;4819351;29;20042;-85
2023/12/12 10:46:53;;;;;;;0.77;0.63;;;;;;;;;;4819368;29;20042;-85
2023/12/12 10:49:21;;;;;;;7.75;0.70;;;;;;;;;;4816283;29;20134;-84
2023/12/12 10:51:48;;;;;;;2.83;1.25;;;;;;;;;;4818541;29;20541;-85
2023/12/12 10:54:16;;;;;;;1.33;0.60;;;;;;;;;;4824456;29;20062;-85
2023/12/12 10:56:46;;;;;;;1.38;0.75;;;;;;;;;;4819367;29;20050;-85
2023/12/12 10:59:15;;;;;;;1.33;0.70;;;;;;;;;;4810311;29;20038;-86
2023/12/12 11:01:41;;;;;;;2.63;0.80;;;;;;;;;;4802486;29;20152;-85
2023/12/12 11:04:08;;;;;;;7.40;0.95;;;;;;;;;;4822981;29;20393;-85
2023/12/12 11:06:37;;;;;;;6.22;2.05;;;;;;;;;;4814287;29;20066;-85
2023/12/12 11:09:06;;;;;;;5.85;1.42;;;;;;;;;;4815171;29;20039;-85
2023/12/12 11:11:32;;;;;;;5.40;1.58;;;;;;;;;;4821184;29;20088;-85
2023/12/12 11:14:00;;;;;;;1.08;0.80;;;;;;;;;;4814826;29;20406;-85
2023/12/12 11:16:31;;;;;;;0.70;0.40;;;;;;;;;;4816973;29;20038;-85
2023/12/12 11:19:05;;;;;;;1.45;0.98;;;;;;;;;;4820545;29;20054;-85
2023/12/12 11:21:52;;;;;;;2.60;1.55;;;;;;;;;;4810363;29;20046;-85
2023/12/12 11:24:18;;;;;;;2.25;1.35;;;;;;;;;;4814533;29;20069;-85
2023/12/12 11:26:47;;;;;;;5.88;2.13;;;;;;;;;;4830977;29;20485;-85
2023/12/12 11:29:20;;;;;;;3.75;1.25;;;;;;;;;;4802824;29;20047;-85
2023/12/12 11:32:00;;;;;;;2.17;1.25;;;;;;;;;;4828049;29;20556;-85
2023/12/12 11:34:26;;;;;;;2.92;1.83;;;;;;;;;;4816929;29;20134;-85
2023/12/12 11:37:00;;;;;;;1.17;0.75;;;;;;;;;;4805727;29;20134;-85
2023/12/12 11:39:42;;;;;;;2.03;0.90;;;;;;;;;;4813374;29;20501;-85
2023/12/12 11:42:28;;;;;;;2.00;0.77;;;;;;;;;;4831188;29;20054;-85
2023/12/12 11:44:56;;;;;;;3.00;0.85;;;;;;;;;;4830076;29;20141;-84
2023/12/12 11:47:24;;;;;;;1.20;0.63;;;;;;;;;;4803840;29;20561;-85
2023/12/12 11:49:51;;;;;;;2.80;0.90;;;;;;;;;;4815451;29;20413;-85
2023/12/12 11:52:35;;;;;;;1.52;0.95;;;;;;;;;;4819862;29;20030;-85
2023/12/12 11:55:04;;;;;;;2.80;1.50;;;;;;;;;;4832497;29;20851;-85
2023/12/12 11:57:33;;;;;;;2.00;1.05;;;;;;;;;;4823642;29;20134;-85
2023/12/12 12:00:16;;;;;;;2.55;0.70;;;;;;;;;;4806516;29;20082;-86
2023/12/12 12:02:45;;;;;;;;;;;;;;;;;;4804122;29;21296;-85
2023/12/12 12:05:27;;;;;;;3.83;1.17;;;;;;;;;;4818582;29;19924;-86
2023/12/12 12:08:05;;;;;;;;;;;;;;;;;;;;;
2023/12/12 12:14:15;;;;;;;0.95;0.47;;;;;;;;;;4775760;29;20045;-85
2023/12/12 12:16:42;;;;;;;2.97;1.20;;;;;;;;;;4764669;29;20524;-86
2023/12/12 12:19:44;;;;;;;2.95;1.67;;;;;;;;;;4774898;29;20043;-86
2023/12/12 12:22:26;;;;;;;;;;;;;;;;;;4804738;29;20053;-86
2023/12/12 12:25:27;;;;;;;1.23;0.47;;;;;;;;;;4801026;29;19920;-86
2023/12/12 12:28:04;;;;;;;3.13;1.65;;;;;;;;;;4822678;29;20058;-85
2023/12/12 12:30:43;;;;;;;3.67;1.92;;;;;;;;;;4801207;29;20054;-86
2023/12/12 12:33:15;;;;;;;6.22;2.45;;;;;;;;;;4815688;29;20046;-85
2023/12/12 12:36:38;;;;;;;;;;;;;;;;;;;;;
2023/12/12 12:39:35;;;;;;;4.53;1.52;;;;;;;;;;4817657;29;20496;-86
2023/12/12 12:59:55;;;;;;;4.82;2.00;;;;;;;;;;4772311;29;20067;-87
2023/12/12 13:03:03;;;;;;;9.90;1.75;;;;;;;;;;4778445;29;20075;-87
2023/12/12 13:05:37;;;;;;;4.30;1.85;;;;;;;;;;4769240;30;20059;-86
2023/12/12 13:08:25;;;;;;;3.17;1.55;;;;;;;;;;4763446;30;20558;-87
2023/12/12 13:11:09;;;;;;;4.45;2.47;;;;;;;;;;4766674;30;20540;-87
2023/12/12 13:20:20;;;;;;;3.58;2.42;;;;;;;;;;4783166;29;20066;-87
2023/12/12 13:22:58;;;;;;;6.68;3.17;;;;;;;;;;4795769;29;20554;-87
2023/12/12 13:31:23;;;;;;;6.13;3.03;;;;;;;;;;4822093;29;20377;-86
2023/12/12 13:34:14;;;;;;;14.73;4.78;;;;;;;;;;4806543;29;20501;-87
2023/12/12 13:43:54;;;;;;;4.85;2.65;;;;;;;;;;4703020;30;20049;-86
2023/12/12 13:46:35;;;;;;;4.75;2.22;;;;;;;;;;4783703;29;20055;-86
2023/12/12 13:49:06;;;;;;;4.82;2.55;;;;;;;;;;4806753;29;20548;-86
2023/12/12 13:51:40;;;;;;;3.70;1.73;;;;;;;;;;4814661;29;20164;-86
2023/12/12 13:57:10;;;;;;;1.70;0.90;;;;;;;;;;4823604;29;20058;-87
2023/12/12 13:59:41;;;;;;;1.27;0.90;;;;;;;;;;4814177;29;20046;-86
2023/12/12 14:02:45;;;;;;;3.38;1.25;;;;;;;;;;4775425;30;20061;-86
2023/12/12 14:05:40;;;;;;;;;;;;;;;;;;;;;
2023/12/12 14:08:06;;;;;;;1.40;0.57;;;;;;;;;;4776630;30;20043;-86
2023/12/12 14:10:46;;;;;;;1.55;0.82;;;;;;;;;;4788819;29;20235;-87
2023/12/12 14:13:23;;;;;;;1.30;0.93;;;;;;;;;;4840039;29;20045;-86
2023/12/12 14:16:01;;;;;;;0.82;0.20;;;;;;;;;;4824665;29;20054;-86
2023/12/12 14:18:32;;;;;;;1.08;0.52;;;;;;;;;;4832010;29;20034;-86
2023/12/12 14:21:01;;;;;;;1.05;0.85;;;;;;;;;;4824946;29;20049;-86
2023/12/12 14:23:37;;;;;;;2.42;0.75;;;;;;;;;;4824179;29;20707;-87
2023/12/12 14:26:11;;;;;;;5.65;2.97;;;;;;;;;;4819247;29;20117;-86
2023/12/12 14:28:48;;;;;;;12.10;4.43;;;;;;;;;;4823066;29;20053;-86
2023/12/12 14:31:30;;;;;;;5.70;2.92;;;;;;;;;;4823528;29;20149;-86
2023/12/12 15:17:50;;;;;;;;;;;;;;;;;;;;;
2023/12/12 15:22:58;;;;;;;7.25;4.28;;;;;;;;;;4826323;29;20397;-86
2023/12/12 15:25:31;;;;;;;13.60;4.60;;;;;;;;;;4810792;29;20050;-87
2023/12/12 15:31:29;;;;;;;5.28;3.65;;;;;;;;;;4816177;29;20405;-86
2023/12/12 15:45:04;;;;;;;;;;;;;;;;;;;;;
2023/12/12 15:53:33;;;;;;;14.27;3.08;;;;;;;;;;4678893;30;20096;-86
2023/12/12 15:59:25;;;;;;;9.40;2.55;;;;;;;;;;4738244;30;20040;-86
2023/12/12 16:01:57;;;;;;;4.60;2.45;;;;;;;;;;4731269;30;20068;-86
2023/12/12 16:04:28;;;;;;;2.20;1.55;;;;;;;;;;4765040;29;20831;-87
2023/12/12 16:06:54;;;;;;;12.98;1.92;;;;;;;;;;4805094;29;20527;-85
2023/12/12 16:09:43;;;;;;;6.25;1.80;;;;;;;;;;4799557;29;20069;-86
2023/12/12 16:15:23;;;;;;;3.83;2.67;;;;;;;;;;4819093;29;20095;-89
2023/12/12 16:17:49;;;;;;;3.65;2.10;;;;;;;;;;4811842;29;20050;-84
2023/12/12 16:23:11;;;;;;;6.07;3.22;;;;;;;;;;4923847;24;20129;-87
2023/12/12 16:25:37;;;;;;;2.90;1.50;;;;;;;;;;4846554;29;20042;-84
2023/12/12 16:28:04;;;;;;;1.58;1.45;;;;;;;;;;4834685;29;20049;-84
2023/12/12 16:30:30;;;;;;;2.05;0.85;;;;;;;;;;4832964;29;20065;-83
2023/12/12 16:32:59;;;;;;;0.98;0.60;;;;;;;;;;4833395;29;20054;-84
2023/12/12 16:35:25;;;;;;;0.88;0.43;;;;;;;;;;4837278;29;20042;-83
2023/12/12 16:38:09;;;;;;;0.90;0.55;;;;;;;;;;4831371;29;20051;-85
2023/12/12 16:40:45;;;;;;;1.70;0.98;;;;;;;;;;4844346;29;20129;-85
2023/12/12 16:43:11;;;;;;;5.00;1.25;;;;;;;;;;4827988;29;20054;-84
2023/12/12 16:45:37;;;;;;;2.13;0.80;;;;;;;;;;4836307;29;20045;-83
2023/12/12 16:48:04;;;;;;;2.20;1.20;;;;;;;;;;4829730;29;20050;-83
2023/12/12 16:50:31;;;;;;;2.38;1.60;;;;;;;;;;4833525;29;20049;-85
2023/12/12 16:53:04;;;;;;;1.25;0.88;;;;;;;;;;4814504;29;20058;-84
2023/12/12 16:55:33;;;;;;;1.33;0.82;;;;;;;;;;4858637;24;20030;-85
2023/12/12 16:57:59;;;;;;;1.05;0.52;;;;;;;;;;4825702;29;20876;-83
2023/12/12 17:00:25;;;;;;;0.75;0.55;;;;;;;;;;4813873;29;20194;-84
2023/12/12 17:02:52;;;;;;;1.85;0.65;;;;;;;;;;4827993;29;20043;-84
2023/12/12 17:05:18;;;;;;;0.45;0.25;;;;;;;;;;4802544;29;20046;-82
2023/12/12 17:07:44;;;;;;;0.73;0.40;;;;;;;;;;4795229;29;20043;-82
2023/12/12 17:10:10;;;;;;;3.67;1.55;;;;;;;;;;4800128;29;20051;-82
2023/12/12 17:12:37;;;;;;;0.20;0.17;;;;;;;;;;4801513;29;20927;-84
2023/12/12 17:15:05;;;;;;;0.90;0.57;;;;;;;;;;4780854;29;20058;-82
2023/12/12 17:17:31;;;;;;;1.40;0.85;;;;;;;;;;4799367;29;20721;-82
2023/12/12 17:19:57;;;;;;;1.25;0.82;;;;;;;;;;4787400;29;20081;-82
2023/12/12 17:22:27;;;;;;;1.15;0.50;;;;;;;;;;4797757;29;20054;-82
2023/12/12 17:24:53;;;;;;;1.20;0.20;;;;;;;;;;4804078;29;20744;-83
2023/12/12 17:27:19;;;;;;;0.15;0.10;;;;;;;;;;4793104;29;20063;-82
2023/12/12 17:29:45;;;;;;;2.63;0.40;;;;;;;;;;4802942;29;20762;-82
2023/12/12 17:32:13;;;;;;;0.98;0.60;;;;;;;;;;4778777;29;20074;-83
2023/12/12 17:34:48;;;;;;;5.22;1.05;;;;;;;;;;4780080;29;20091;-83
2023/12/12 17:37:14;;;;;;;2.25;1.13;;;;;;;;;;4811119;29;20137;-84
2023/12/12 17:43:00;;;;;;;1.25;0.63;;;;;;;;;;4814374;29;20123;-83
2023/12/12 17:45:26;;;;;;;1.25;0.57;;;;;;;;;;4838775;29;20038;-83
2023/12/12 17:47:52;;;;;;;1.27;0.80;;;;;;;;;;4832386;29;20084;-82
2023/12/12 17:50:18;;;;;;;1.15;0.80;;;;;;;;;;4840338;29;20485;-82
2023/12/12 17:52:44;;;;;;;3.40;1.17;;;;;;;;;;4833187;29;20057;-82
2023/12/12 17:55:12;;;;;;;1.17;0.93;;;;;;;;;;4825254;29;20065;-83
2023/12/12 17:57:38;;;;;;;2.80;1.45;;;;;;;;;;4839798;29;20057;-84
2023/12/12 18:00:11;;;;;;;4.35;1.23;;;;;;;;;;4835195;29;20065;-85
2023/12/12 18:02:42;;;;;;;3.78;2.22;;;;;;;;;;4831586;29;20038;-84
2023/12/12 18:07:42;;;;;;;2.92;0.88;;;;;;;;;;4820754;29;20142;-85
2023/12/12 18:10:10;;;;;;;1.05;0.70;;;;;;;;;;4817067;29;20043;-81
2023/12/12 18:12:36;;;;;;;1.98;1.33;;;;;;;;;;4828162;29;20045;-82
2023/12/12 18:15:02;;;;;;;2.08;0.88;;;;;;;;;;4825664;29;20129;-82
2023/12/12 18:17:28;;;;;;;3.65;1.40;;;;;;;;;;4825385;29;20808;-82
2023/12/12 18:19:54;;;;;;;3.70;0.80;;;;;;;;;;4833430;29;20053;-84
2023/12/12 18:22:20;;;;;;;3.13;1.40;;;;;;;;;;4833754;29;20139;-84
2023/12/12 18:24:46;;;;;;;10.73;6.07;;;;;;;;;;4827629;29;20051;-85
2023/12/12 18:27:12;;;;;;;11.38;5.07;;;;;;;;;;4816859;29;20058;-84
2023/12/12 18:29:39;;;;;;;14.30;5.47;;;;;;;;;;4835579;29;20050;-85
2023/12/12 18:32:08;;;;;;;4.85;1.83;;;;;;;;;;4815895;29;20073;-85
2023/12/12 18:34:34;;;;;;;2.45;1.27;;;;;;;;;;5026519;24;20032;31
2023/12/12 18:37:00;;;;;;;6.47;3.22;;;;;;;;;;4832367;29;20168;-84
2023/12/12 18:42:39;;;;;;;3.30;2.25;;;;;;;;;;4811705;29;20039;-84
2023/12/12 18:45:21;;;;;;;2.83;1.17;;;;;;;;;;4808603;29;20078;-85
2023/12/12 18:48:22;;;;;;;7.95;2.65;;;;;;;;;;4804396;29;20043;-87
2023/12/12 18:50:48;;;;;;;2.40;1.08;;;;;;;;;;4812523;29;20916;-85
2023/12/12 18:53:23;;;;;;;4.15;1.20;;;;;;;;;;4807467;29;20046;-85
2023/12/12 19:17:35;;;;;;;3.28;1.80;;;;;;;;;;5410121;24;20073;-85
2023/12/12 19:20:10;;;;;;;3.60;1.65;;;;;;;;;;4815917;29;20058;-84
2023/12/12 19:22:36;;;;;;;5.32;1.60;;;;;;;;;;4808021;29;20050;-85
2023/12/12 19:25:03;;;;;;;3.33;1.75;;;;;;;;;;4825390;29;20042;-86
2023/12/12 19:27:29;;;;;;;2.40;1.88;;;;;;;;;;4822535;29;20112;-84
2023/12/12 19:29:57;;;;;;;2.45;1.48;;;;;;;;;;4822113;29;20034;-85
2023/12/12 19:32:24;;;;;;;6.15;2.38;;;;;;;;;;4822464;29;20473;-82
2023/12/12 19:34:53;;;;;;;6.78;2.75;;;;;;;;;;4816701;29;20046;-83
2023/12/12 19:37:20;;;;;;;5.60;2.80;;;;;;;;;;4839992;29;20050;-85
2023/12/12 19:40:12;;;;;;;2.95;1.55;;;;;;;;;;4872483;24;20107;-85
2023/12/12 19:42:38;;;;;;;1.33;0.60;;;;;;;;;;4842946;24;20192;-84
2023/12/12 19:45:05;;;;;;;0.70;0.40;;;;;;;;;;4839231;29;20050;-81
2023/12/12 19:47:31;;;;;;;0.77;0.70;;;;;;;;;;4853939;29;20047;-83
2023/12/12 19:49:57;;;;;;;0.80;0.63;;;;;;;;;;4856679;29;20054;-83
2023/12/12 19:52:23;;;;;;;2.83;0.80;;;;;;;;;;4849318;29;20057;-83
2023/12/12 19:54:51;;;;;;;1.08;0.50;;;;;;;;;;4835068;29;20077;-83
2023/12/12 19:57:17;;;;;;;0.30;0.13;;;;;;;;;;4855569;29;20148;-84
2023/12/12 19:59:47;;;;;;;1.30;0.45;;;;;;;;;;4839835;29;20914;-83
2023/12/12 20:02:13;;;;;;;0.30;0.20;;;;;;;;;;4838532;29;20058;-84
2023/12/12 20:04:42;;;;;;;2.25;0.70;;;;;;;;;;4846799;29;20053;-85
2023/12/12 21:14:00;;;;;;;;;;;;;;;;;;;;;
2023/12/12 21:45:03;;;;;;;;;;;;;;;;;;;;;
2023/12/12 21:50:57;;;;;;;0.38;0.13;;;;;;;;;;4678307;30;20066;-85
2023/12/12 21:54:00;;;;;;;0.20;0.13;;;;;;;;;;4739324;30;20105;-85
2023/12/12 21:59:37;;;;;;;0.47;0.20;;;;;;;;;;4668633;30;20882;-85
2023/12/12 22:02:20;;;;;;;3.22;0.45;;;;;;;;;;4770810;29;20074;-85
2023/12/12 22:05:05;;;;;;;0.35;0.28;;;;;;;;;;4779263;29;20062;-86
2023/12/12 22:08:03;;;;;;;1.02;0.30;;;;;;;;;;4785087;29;20313;-85
2023/12/12 22:13:18;;;;;;;1.63;0.50;;;;;;;;;;4800120;29;20105;-85
2023/12/12 22:16:10;;;;;;;3.00;0.88;;;;;;;;;;4786029;29;20550;-86
2023/12/12 22:18:45;;;;;;;2.55;1.20;;;;;;;;;;4778296;29;20391;-85
2023/12/12 22:21:14;;;;;;;2.05;1.05;;;;;;;;;;4803028;29;20099;-86
2023/12/12 22:24:13;;;;;;;4.97;0.70;;;;;;;;;;4804658;29;20489;-86
2023/12/12 22:27:02;;;;;;;1.80;0.68;;;;;;;;;;4825789;29;20058;-85